• Join FlightAware (Why Join?)
  • Login
  • US Flag 
12:18AM EDT


 

Airport Tracker/Info


-or-


 

Live Flight TrackerFlight Track Log ✈ N610LJ ✈ 27-Apr-2012 ✈ CYLS - KILM

Flight Track Log - Related Links

Times and Time Zones

All times are in EDT time to prevent confusion due to time zone crossing. See the N610LJ flight status page for this flight to view local times or setup timezone preferences in your user account.

Time Position Orientation Groundspeed Altitude Reporting Facility
EDT Latitude Longitude Course Direction KTS MPH feet Rate Location/Type
03:59PM 44.4167 -79.5667 152° Southeast 260 299 3,100  Level Toronto Center
04:00PM 44.3500 -79.5167 152° Southeast 270 311 4,100 2,400 Climbing Toronto Center
04:01PM 44.2833 -79.4667 144° Southeast 280 322 7,900 3,900 Climbing Toronto Center
04:02PM 44.2167 -79.4000 139° Southeast 300 345 11,900 3,420 Climbing Toronto Center
04:03PM 44.1333 -79.3000 149° Southeast 350 403 14,900 3,000 Climbing Toronto Center
04:04PM 44.0333 -79.2167 174° South 410 472 17,900 3,180 Climbing Toronto Center
04:05PM 43.9167 -79.2000 168° South 430 495 21,300 3,120 Climbing Toronto Center
04:06PM 43.8000 -79.1667 175° South 440 506 24,200 2,700 Climbing Toronto Center
04:07PM 43.6667 -79.1500 174° South 460 529 26,700 2,400 Climbing Toronto Center
04:08PM 43.5500 -79.1333 171° South 470 541 29,000 2,220 Climbing Toronto Center
04:09PM 43.4000 -79.1000 175° South 480 552 31,200 2,040 Climbing Toronto Center
04:10PM 43.2667 -79.0833 175° South 490 564 33,100 1,920 Climbing Toronto Center
04:11PM 43.1333 -79.0667 170° South 490 564 35,100 1,500 Climbing Toronto Center
04:12PM 43.0000 -79.0333 182° South 480 552 36,200 840 Climbing Toronto Center
04:14PM 42.8500 -79.0397 174° South 485 558 37,000 720 Climbing Cleveland Center
04:15PM 42.7164 -79.0206 174° South 490 564 37,900 900 Climbing Cleveland Center
04:16PM 42.5806 -79.0014 174° South 485 558 38,900 780 Climbing Cleveland Center
04:17PM 42.4617 -78.9844 173° South 479 551 39,500 540 Climbing Cleveland Center
04:18PM 42.3133 -78.9603 175° South 485 558 40,000 240 Climbing Cleveland Center
04:19PM 42.1817 -78.9439 173° South 485 558 40,000  Level Cleveland Center
04:20PM 42.0481 -78.9222 173° South 485 558 40,000  Level Cleveland Center
04:21PM 41.9103 -78.9008 174° South 485 558 40,000  Level Cleveland Center
04:22PM 41.7764 -78.8819 174° South 485 558 40,000  Level Cleveland Center
04:23PM 41.6428 -78.8633 174° South 485 558 40,000  Level Cleveland Center
04:24PM 41.5217 -78.8469 174° South 485 558 40,000  Level Cleveland Center
04:25PM 41.3733 -78.8261 174° South 485 558 40,000  Level Cleveland Center
04:26PM 41.2564 -78.8100 173° South 479 551 40,000  Level Cleveland Center
04:27PM 41.1247 -78.7886 174° South 484 557 40,000  Level Cleveland Center
04:28PM 40.9950 -78.7703 174° South 484 557 40,000  Level Cleveland Center
04:29PM 40.8531 -78.7494 175° South 479 551 40,000  Level Cleveland Center
04:30PM 40.7150 -78.7342 173° South 485 558 40,000  Level Cleveland Center
04:31PM 40.5856 -78.7131 175° South 485 558 40,000  Level Cleveland Center
04:32PM 40.4539 -78.6978 173° South 485 558 40,000  Level Cleveland Center
04:33PM 40.3203 -78.6769 174° South 485 558 40,000  Level Cleveland Center
04:36PM 39.8944 -78.6203 174° South 479 551 40,000  Level Washington Center
04:37PM 39.7533 -78.6008 174° South 491 565 40,000  Level Washington Center
04:38PM 39.6183 -78.5817 174° South 496 571 40,000  Level Washington Center
04:39PM 39.4875 -78.5628 175° South 496 571 40,000  Level Washington Center
04:40PM 39.3503 -78.5467 174° South 491 565 40,000  Level Washington Center
04:41PM 39.2194 -78.5278 173° South 491 565 40,000  Level Washington Center
04:42PM 39.0969 -78.5097 175° South 491 565 40,000  Level Washington Center
04:43PM 38.9658 -78.4936 174° South 491 565 40,000  Level Washington Center
04:44PM 38.8289 -78.4750 174° South 491 565 40,000  Level Washington Center
04:45PM 38.6939 -78.4564 174° South 496 571 40,000  Level Washington Center
04:46PM 38.5608 -78.4381 174° South 496 571 40,000  Level Washington Center
04:47PM 38.4256 -78.4194 174° South 496 571 40,000  Level Washington Center
04:48PM 38.2925 -78.4011 175° South 496 571 40,000  Level Washington Center
04:49PM 38.1594 -78.3858 174° South 496 571 40,000 -60 Level Washington Center
04:50PM 38.0286 -78.3675 175° South 491 565 39,900 -660 Descending Washington Center
04:51PM 37.8933 -78.3522 173° South 460 529 38,800 -1,620 Descending Washington Center
04:52PM 37.7625 -78.3317 175° South 460 529 36,700 -1,740 Descending Washington Center
04:53PM 37.6272 -78.3161 175° South 478 550 35,300 -1,320 Descending Washington Center
04:54PM 37.4983 -78.3011 173° South 478 550 34,200 -660 Descending Washington Center
04:55PM 37.3653 -78.2806 175° South 478 550 34,000 -360 Descending Washington Center
04:56PM 37.2444 -78.2661 175° South 478 550 33,500 -1,740 Descending Washington Center
04:57PM 37.1133 -78.2511 174° South 478 550 30,600 -1,980 Descending Washington Center
04:58PM 36.9886 -78.2339 175° South 472 543 29,600 -840 Descending Washington Center
04:59PM 36.8575 -78.2189 175° South 472 543 29,000 -420 Descending Washington Center
05:00PM 36.7306 -78.2042 176° South 466 536 28,800 -480 Descending Washington Center
05:01PM 36.6078 -78.1922 173° South 457 526 28,100 -420 Descending Washington Center
05:02PM 36.4683 -78.1722 175° South 456 525 28,000 -60 Descending Washington Center
05:03PM 36.3394 -78.1575 173° South 462 532 28,000  Level Washington Center
05:04PM 36.2103 -78.1381 175° South 462 532 28,000 -540 Level Washington Center
05:05PM 36.0814 -78.1236 174° South 462 532 27,000 -1,380 Descending Washington Center
05:06PM 35.9564 -78.1067 174° South 455 524 25,200 -1,440 Descending Washington Center
05:07PM 35.8317 -78.0900 175° South 460 529 24,200 -1,380 Descending Washington Center
05:08PM 35.7089 -78.0758 174° South 454 522 22,600 -1,500 Descending Washington Center
05:09PM 35.6006 -78.0622 175° South 448 516 21,200 -1,620 Descending Washington Center
05:10PM 35.4778 -78.0483 173° South 442 509 19,500 -1,680 Descending Washington Center
05:11PM 35.3614 -78.0319 175° South 442 509 17,900 -1,620 Descending Washington Center
05:12PM 35.2447 -78.0183 175° South 429 494 16,300 -1,680 Descending Washington Center
05:13PM 35.1239 -78.0044 174° South 416 479 14,600 -1,800 Descending Washington Center
05:15PM 34.9200 -77.9781 175° South 375 432 11,100 -1,320 Descending Washington Center
05:16PM 34.8283 -77.9678 177° South 354 407 10,800 -900 Descending Washington Center
05:17PM 34.7492 -77.9631 174° South 335 386 9,400 -1,380 Descending Washington Center
05:18PM 34.6703 -77.9531 180° South 305 351 8,100 -720 Descending Washington Center
05:19PM 34.5972 -77.9536 187° South 282 325 8,000 -600 Descending Washington Center
05:20PM 34.5239 -77.9642 195° South 270 311 7,000 -1,680 Descending Washington Center
05:21PM 34.4544 -77.9872 200° South 265 305 4,600 -1,860 Descending Washington Center
05:22PM 34.3914 -78.0156 200° South 259 298 3,300 -1,380 Descending Washington Center